createdAt,value
2018-12-25T00:02:50.113Z,5.97
2018-12-25T00:07:53.663Z,5.92
2018-12-25T00:12:57.277Z,5.91
2018-12-25T00:18:01.077Z,5.90
2018-12-25T00:23:05.010Z,5.89
2018-12-25T00:28:08.565Z,5.88
2018-12-25T00:33:12.237Z,5.90
2018-12-25T00:38:15.887Z,5.95
2018-12-25T00:43:19.456Z,5.94
2018-12-25T00:48:24.589Z,5.84
2018-12-25T00:53:28.424Z,5.76
2018-12-25T00:58:32.035Z,5.68
2018-12-25T01:03:35.554Z,5.53
2018-12-25T01:08:39.318Z,5.53
2018-12-25T01:13:45.359Z,5.48
2018-12-25T01:18:49.156Z,5.42
2018-12-25T01:23:52.716Z,5.28
2018-12-25T01:28:56.252Z,5.24
2018-12-25T01:33:59.878Z,5.20
2018-12-25T01:39:06.204Z,5.01
2018-12-25T01:44:09.671Z,5.04
2018-12-25T01:49:13.345Z,4.92
2018-12-25T01:54:16.875Z,4.94
2018-12-25T01:59:20.388Z,4.92
2018-12-25T02:04:24.008Z,4.77
2018-12-25T02:09:27.719Z,4.72
2018-12-25T02:14:31.300Z,4.53
2018-12-25T02:19:40.204Z,4.49
2018-12-25T02:24:41.956Z,4.45
2018-12-25T02:29:45.384Z,4.41
2018-12-25T02:34:48.942Z,4.46
2018-12-25T02:39:52.494Z,4.36
2018-12-25T02:44:55.843Z,4.38
2018-12-25T02:49:59.633Z,4.34
2018-12-25T02:55:03.065Z,4.23
2018-12-25T03:00:07.278Z,4.09
2018-12-25T03:05:10.889Z,3.93
2018-12-25T03:10:15.832Z,3.85
2018-12-25T03:15:19.326Z,3.77
2018-12-25T03:20:22.892Z,3.72
2018-12-25T03:25:26.578Z,3.54
2018-12-25T03:30:30.041Z,3.50
2018-12-25T03:35:33.706Z,3.44
2018-12-25T03:40:37.311Z,3.30
2018-12-25T03:45:40.864Z,3.29
2018-12-25T03:50:44.596Z,3.35
2018-12-25T03:55:48.171Z,3.31
2018-12-25T04:00:51.768Z,3.27
2018-12-25T04:05:55.182Z,3.30
2018-12-25T04:10:58.785Z,3.31
2018-12-25T04:16:02.317Z,3.17
2018-12-25T04:21:06.112Z,3.07
2018-12-25T04:26:09.734Z,3.04
2018-12-25T04:31:13.535Z,2.99
2018-12-25T04:36:17.202Z,2.94
2018-12-25T04:41:20.879Z,2.94
2018-12-25T04:46:24.466Z,2.85
2018-12-25T04:51:28.607Z,2.73
2018-12-25T04:56:32.089Z,2.73
2018-12-25T05:01:35.628Z,2.70
2018-12-25T05:06:39.438Z,2.69
2018-12-25T05:11:42.875Z,2.58
2018-12-25T05:16:47.491Z,2.57
2018-12-25T05:21:51.399Z,2.46
2018-12-25T05:26:54.954Z,2.41
2018-12-25T05:31:58.738Z,2.45
2018-12-25T05:37:02.475Z,2.45
2018-12-25T05:42:06.198Z,2.43
2018-12-25T05:47:09.584Z,2.48
2018-12-25T05:52:13.663Z,2.42
2018-12-25T05:57:17.319Z,2.36
2018-12-25T06:02:20.761Z,2.35
2018-12-25T06:07:24.382Z,2.23
2018-12-25T06:12:27.932Z,2.22
2018-12-25T06:17:31.638Z,2.15
2018-12-25T06:22:35.379Z,2.14
2018-12-25T06:27:39.035Z,2.00
2018-12-25T06:32:43.047Z,2.05
2018-12-25T06:37:46.736Z,2.04
2018-12-25T06:42:50.457Z,2.16
2018-12-25T06:47:54.051Z,2.11
2018-12-25T06:52:57.810Z,2.17
2018-12-25T06:58:01.580Z,2.38
2018-12-25T07:03:05.242Z,2.32
2018-12-25T07:08:08.959Z,2.35
2018-12-25T07:13:12.831Z,2.43
2018-12-25T07:18:19.446Z,2.52
2018-12-25T07:23:23.032Z,2.54
2018-12-25T07:28:26.390Z,2.59
2018-12-25T07:33:30.089Z,2.70
2018-12-25T07:38:33.628Z,2.69
2018-12-25T07:43:37.064Z,2.54
2018-12-25T07:48:40.761Z,2.50
2018-12-25T07:53:44.478Z,2.34
2018-12-25T07:58:48.189Z,2.52
2018-12-25T08:03:51.748Z,2.56
2018-12-25T08:08:55.424Z,2.73
2018-12-25T08:13:58.773Z,2.73
2018-12-25T08:19:02.294Z,2.73
2018-12-25T08:24:06.648Z,2.72
2018-12-25T08:29:10.307Z,2.62
2018-12-25T08:34:13.826Z,2.81
2018-12-25T08:39:17.760Z,2.71
2018-12-25T08:44:21.174Z,3.08
2018-12-25T08:49:24.600Z,2.85
2018-12-25T08:54:28.566Z,2.75
2018-12-25T08:59:32.191Z,2.94
2018-12-25T09:04:35.709Z,2.82
2018-12-25T09:09:39.447Z,2.82
2018-12-25T09:14:43.116Z,2.81
2018-12-25T09:19:46.627Z,2.73
2018-12-25T09:24:50.212Z,2.75
2018-12-25T09:29:53.834Z,2.77
2018-12-25T09:34:57.228Z,2.93
2018-12-25T09:40:00.785Z,2.75
2018-12-25T09:45:05.352Z,2.66
2018-12-25T09:50:08.830Z,2.87
2018-12-25T09:55:12.888Z,2.76
2018-12-25T10:00:16.480Z,2.69
2018-12-25T10:05:20.018Z,2.74
2018-12-25T10:10:23.466Z,2.58
2018-12-25T10:15:27.061Z,2.37
2018-12-25T10:20:30.865Z,2.41
2018-12-25T10:25:34.883Z,2.34
2018-12-25T10:30:38.377Z,2.44
2018-12-25T10:35:42.120Z,2.50
2018-12-25T10:40:45.885Z,2.55
2018-12-25T10:45:49.501Z,2.61
2018-12-25T10:50:53.114Z,2.66
2018-12-25T10:55:56.980Z,2.60
2018-12-25T11:01:11.619Z,2.62
2018-12-25T11:06:15.846Z,2.63
2018-12-25T11:11:19.287Z,2.62
2018-12-25T11:16:23.071Z,2.76
2018-12-25T11:21:26.882Z,2.89
2018-12-25T11:26:30.483Z,2.91
2018-12-25T11:31:34.255Z,2.99
2018-12-25T11:36:38.835Z,2.96
2018-12-25T11:41:42.464Z,3.02
2018-12-25T11:46:46.032Z,2.90
2018-12-25T11:51:49.639Z,3.00
2018-12-25T11:56:53.214Z,2.98
2018-12-25T12:01:56.960Z,2.93
2018-12-25T12:07:00.531Z,2.94
2018-12-25T12:12:04.145Z,2.84
2018-12-25T12:17:08.052Z,2.75
2018-12-25T12:22:11.634Z,2.78
2018-12-25T12:27:15.165Z,2.80
2018-12-25T12:32:18.760Z,2.73
2018-12-25T12:37:22.465Z,2.63
2018-12-25T12:42:26.323Z,2.56
2018-12-25T12:47:31.440Z,2.50
2018-12-25T12:52:36.438Z,2.67
2018-12-25T12:57:40.401Z,2.92
2018-12-25T13:02:43.921Z,2.80
2018-12-25T13:07:47.738Z,2.86
2018-12-25T13:12:52.703Z,3.11
2018-12-25T13:17:56.355Z,2.95
2018-12-25T13:23:01.446Z,2.91
2018-12-25T13:28:04.984Z,2.78
2018-12-25T13:33:09.989Z,2.75
2018-12-25T13:38:13.647Z,2.76
2018-12-25T13:43:17.275Z,2.71
2018-12-25T13:48:20.973Z,2.63
2018-12-25T13:53:24.760Z,2.69
2018-12-25T13:58:30.059Z,2.52
2018-12-25T14:03:35.091Z,2.49
2018-12-25T14:08:38.748Z,2.51
2018-12-25T14:13:43.490Z,2.36
2018-12-25T14:18:47.274Z,2.51
2018-12-25T14:23:51.036Z,2.40
2018-12-25T14:28:56.586Z,2.52
2018-12-25T14:33:59.996Z,2.50
2018-12-25T14:39:05.675Z,2.60
2018-12-25T14:44:09.549Z,2.67
2018-12-25T14:49:13.106Z,2.41
2018-12-25T14:54:16.684Z,2.46
2018-12-25T14:59:20.267Z,2.35
2018-12-25T15:04:23.822Z,2.33
2018-12-25T15:09:27.399Z,2.29
2018-12-25T15:14:32.426Z,2.28
2018-12-25T15:19:36.066Z,2.30
2018-12-25T15:24:39.884Z,2.19
2018-12-25T15:29:43.425Z,2.12
2018-12-25T15:34:48.151Z,2.05
2018-12-25T15:39:51.483Z,2.04
2018-12-25T15:44:56.284Z,1.99
2018-12-25T15:50:00.007Z,1.91
2018-12-25T15:55:03.853Z,1.83
2018-12-25T16:00:12.475Z,1.82
2018-12-25T16:05:15.861Z,1.79
2018-12-25T16:10:19.779Z,1.73
2018-12-25T16:15:23.272Z,1.78
2018-12-25T16:20:27.364Z,1.78
2018-12-25T16:25:35.275Z,1.78
2018-12-25T16:30:39.813Z,1.74
2018-12-25T16:35:43.492Z,1.77
2018-12-25T16:40:47.126Z,1.83
2018-12-25T16:45:50.703Z,1.78
2018-12-25T16:50:54.592Z,1.81
2018-12-25T16:55:58.121Z,1.73
2018-12-25T17:01:03.311Z,1.73
2018-12-25T17:06:07.184Z,1.79
2018-12-25T17:11:10.606Z,1.76
2018-12-25T17:16:15.021Z,1.77
2018-12-25T17:21:18.907Z,1.68
2018-12-25T17:26:22.461Z,1.67
2018-12-25T17:31:26.118Z,1.57
2018-12-25T17:36:29.712Z,1.54
2018-12-25T17:41:33.173Z,1.49
2018-12-25T17:46:38.353Z,1.48
2018-12-25T17:51:43.303Z,1.36
2018-12-25T17:56:46.749Z,1.34
2018-12-25T18:01:50.496Z,1.31
2018-12-25T18:06:53.952Z,1.24
2018-12-25T18:11:57.562Z,1.19
2018-12-25T18:17:00.996Z,1.15
2018-12-25T18:22:04.524Z,1.07
2018-12-25T18:27:08.087Z,1.05
2018-12-25T18:32:13.217Z,1.02
2018-12-25T18:37:17.335Z,0.97
2018-12-25T18:42:23.293Z,0.92
2018-12-25T18:47:26.170Z,0.89
2018-12-25T18:52:29.850Z,0.90
2018-12-25T18:57:33.401Z,0.91
2018-12-25T19:02:37.391Z,0.90
2018-12-25T19:07:43.674Z,0.82
2018-12-25T19:12:49.899Z,0.83
2018-12-25T19:17:56.201Z,0.72
2018-12-25T19:22:59.579Z,0.72
2018-12-25T19:28:03.016Z,0.70
2018-12-25T19:33:06.713Z,0.66
2018-12-25T19:38:10.109Z,0.69
2018-12-25T19:43:13.527Z,0.58
2018-12-25T19:48:16.919Z,0.58
2018-12-25T19:53:20.268Z,0.58
2018-12-25T19:58:23.671Z,0.56
2018-12-25T20:03:47.539Z,0.54
2018-12-25T20:10:06.144Z,0.54
2018-12-25T20:15:48.603Z,0.52
2018-12-25T20:21:32.137Z,0.55
2018-12-25T20:27:08.956Z,0.45
2018-12-25T20:32:50.438Z,0.49
2018-12-25T20:38:32.290Z,0.47
2018-12-25T20:44:20.945Z,0.39
2018-12-25T20:50:07.576Z,0.35
2018-12-25T20:56:03.881Z,0.35
2018-12-25T21:01:39.851Z,0.35
2018-12-25T21:07:22.591Z,0.29
2018-12-25T21:13:04.816Z,0.29
2018-12-25T21:19:02.073Z,0.33
2018-12-25T21:24:41.961Z,0.33
2018-12-25T21:29:45.635Z,0.28
2018-12-25T21:34:56.654Z,0.26
2018-12-25T21:40:00.373Z,0.21
2018-12-25T21:45:11.870Z,0.18
2018-12-25T21:50:15.857Z,0.08
2018-12-25T21:55:19.475Z,0.14
2018-12-25T22:00:25.713Z,0.07
2018-12-25T22:05:29.810Z,0.09
2018-12-25T22:10:33.449Z,0.04
2018-12-25T22:15:36.890Z,0.06
2018-12-25T22:20:40.458Z,0.07
2018-12-25T22:25:44.466Z,0.08
2018-12-25T22:30:47.975Z,0.01
2018-12-25T22:35:52.310Z,-0.01
2018-12-25T22:40:55.906Z,-0.05
2018-12-25T22:46:06.891Z,-0.06
2018-12-25T22:51:10.798Z,-0.05
2018-12-25T22:56:14.509Z,-0.05
2018-12-25T23:01:18.572Z,-0.06
2018-12-25T23:06:23.040Z,-0.06
2018-12-25T23:11:26.281Z,-0.06
2018-12-25T23:16:29.852Z,-0.02
2018-12-25T23:21:33.532Z,-0.07
2018-12-25T23:26:37.186Z,-0.07
2018-12-25T23:31:40.490Z,-0.07
2018-12-25T23:36:45.464Z,-0.08
2018-12-25T23:41:50.296Z,-0.13
2018-12-25T23:46:54.009Z,-0.13
2018-12-25T23:51:57.598Z,-0.11
2018-12-25T23:57:01.007Z,-0.16
